Terminal Aerodrome Forecast
Issued by NWS

Home | Current Version | Previous Version | Text Only | Print | Product List | Glossary On
Versions: 1 2 3 4 5 6 7 8 9 10 11 12 13 14 15
000
FTAK31 PAJN 230531
TAFAKT
TAF
PAKT 230531Z 2306/2406 14012KT P6SM -RA SCT006 OVC015
      TEMPO 2306/2310 12015G25KT 2SM -RA BR BKN006 OVC012
     FM231000 14012G20KT 4SM -RA BR BKN015 BKN025 OVC040
      TEMPO 2310/2314 2SM RA BR BKN008 OVC015
     FM231400 13015G25KT 2SM RA BR SCT004 BKN006 OVC010
      WS020/16040KT
     FM240200 14012G20KT 6SM -RA BR SCT008 BKN025 OVC040
      AMD LTD TO CLD VIS AND WIND TIL 231500=

USA.gov is the U.S. government's official web portal to all federal, state and local government web resources and services.